sensor_id;sensor_type;location;lat;lon;timestamp;P1;durP1;ratioP1;P2;durP2;ratioP2
73170;SDS011;61381;50.118;19.962;2023-10-13T00:00:18;20.58;;;10.35;;
73170;SDS011;61381;50.118;19.962;2023-10-13T00:05:39;20.73;;;9.70;;
73170;SDS011;61381;50.118;19.962;2023-10-13T00:10:40;17.67;;;9.27;;
73170;SDS011;61381;50.118;19.962;2023-10-13T00:15:43;24.10;;;11.05;;
73170;SDS011;61381;50.118;19.962;2023-10-13T00:20:45;21.80;;;10.40;;
73170;SDS011;61381;50.118;19.962;2023-10-13T00:25:47;21.70;;;10.57;;
73170;SDS011;61381;50.118;19.962;2023-10-13T00:30:50;23.17;;;10.40;;
73170;SDS011;61381;50.118;19.962;2023-10-13T00:35:51;22.88;;;10.90;;
73170;SDS011;61381;50.118;19.962;2023-10-13T00:40:52;21.15;;;11.32;;
73170;SDS011;61381;50.118;19.962;2023-10-13T00:45:54;24.42;;;11.82;;
73170;SDS011;61381;50.118;19.962;2023-10-13T00:50:56;26.13;;;12.27;;
73170;SDS011;61381;50.118;19.962;2023-10-13T00:55:58;23.73;;;11.57;;
73170;SDS011;61381;50.118;19.962;2023-10-13T01:01:00;21.00;;;10.73;;
73170;SDS011;61381;50.118;19.962;2023-10-13T01:06:02;22.60;;;11.77;;
73170;SDS011;61381;50.118;19.962;2023-10-13T01:11:03;22.77;;;12.95;;
73170;SDS011;61381;50.118;19.962;2023-10-13T01:16:05;27.85;;;12.18;;
73170;SDS011;61381;50.118;19.962;2023-10-13T01:21:06;24.45;;;11.05;;
73170;SDS011;61381;50.118;19.962;2023-10-13T01:26:08;25.52;;;11.50;;
73170;SDS011;61381;50.118;19.962;2023-10-13T01:31:09;25.80;;;11.02;;
73170;SDS011;61381;50.118;19.962;2023-10-13T01:36:11;23.55;;;11.65;;
73170;SDS011;61381;50.118;19.962;2023-10-13T01:41:13;25.10;;;11.50;;
73170;SDS011;61381;50.118;19.962;2023-10-13T01:46:14;23.08;;;10.48;;
73170;SDS011;61381;50.118;19.962;2023-10-13T01:51:15;21.85;;;11.07;;
73170;SDS011;61381;50.118;19.962;2023-10-13T01:56:17;25.60;;;13.43;;
73170;SDS011;61381;50.118;19.962;2023-10-13T02:01:18;26.80;;;12.45;;
73170;SDS011;61381;50.118;19.962;2023-10-13T02:06:19;29.27;;;13.57;;
73170;SDS011;61381;50.118;19.962;2023-10-13T02:11:21;33.05;;;15.02;;
73170;SDS011;61381;50.118;19.962;2023-10-13T02:16:21;32.22;;;13.68;;
73170;SDS011;61381;50.118;19.962;2023-10-13T02:21:22;29.13;;;14.23;;
73170;SDS011;61381;50.118;19.962;2023-10-13T02:26:25;23.10;;;11.75;;
73170;SDS011;61381;50.118;19.962;2023-10-13T02:31:27;24.85;;;11.60;;
73170;SDS011;61381;50.118;19.962;2023-10-13T02:36:28;23.95;;;12.40;;
73170;SDS011;61381;50.118;19.962;2023-10-13T02:41:30;20.88;;;10.48;;
73170;SDS011;61381;50.118;19.962;2023-10-13T02:46:31;20.88;;;10.88;;
73170;SDS011;61381;50.118;19.962;2023-10-13T02:51:32;24.33;;;11.75;;
73170;SDS011;61381;50.118;19.962;2023-10-13T02:56:34;24.20;;;12.13;;
73170;SDS011;61381;50.118;19.962;2023-10-13T03:01:35;30.90;;;13.13;;
73170;SDS011;61381;50.118;19.962;2023-10-13T03:06:36;20.50;;;10.90;;
73170;SDS011;61381;50.118;19.962;2023-10-13T03:11:38;38.83;;;17.40;;
73170;SDS011;61381;50.118;19.962;2023-10-13T03:16:39;24.42;;;11.95;;
73170;SDS011;61381;50.118;19.962;2023-10-13T03:21:40;28.45;;;12.75;;
73170;SDS011;61381;50.118;19.962;2023-10-13T03:26:42;30.40;;;13.60;;
73170;SDS011;61381;50.118;19.962;2023-10-13T03:31:43;36.50;;;14.82;;
73170;SDS011;61381;50.118;19.962;2023-10-13T03:36:44;32.70;;;15.50;;
73170;SDS011;61381;50.118;19.962;2023-10-13T03:41:46;33.17;;;13.77;;
73170;SDS011;61381;50.118;19.962;2023-10-13T03:46:47;27.95;;;11.88;;
73170;SDS011;61381;50.118;19.962;2023-10-13T03:51:48;29.70;;;13.10;;
73170;SDS011;61381;50.118;19.962;2023-10-13T03:56:50;27.48;;;11.60;;
73170;SDS011;61381;50.118;19.962;2023-10-13T04:01:51;26.08;;;13.23;;
73170;SDS011;61381;50.118;19.962;2023-10-13T04:06:52;30.33;;;13.07;;
73170;SDS011;61381;50.118;19.962;2023-10-13T04:11:54;30.17;;;12.82;;
73170;SDS011;61381;50.118;19.962;2023-10-13T04:16:55;25.23;;;13.27;;
73170;SDS011;61381;50.118;19.962;2023-10-13T04:21:56;30.85;;;13.75;;
73170;SDS011;61381;50.118;19.962;2023-10-13T04:26:58;29.42;;;13.25;;
73170;SDS011;61381;50.118;19.962;2023-10-13T04:31:59;22.83;;;11.70;;
73170;SDS011;61381;50.118;19.962;2023-10-13T04:37:00;31.67;;;14.10;;
73170;SDS011;61381;50.118;19.962;2023-10-13T04:42:02;30.10;;;14.15;;
73170;SDS011;61381;50.118;19.962;2023-10-13T04:47:03;26.25;;;14.15;;
73170;SDS011;61381;50.118;19.962;2023-10-13T04:52:05;28.42;;;14.88;;
73170;SDS011;61381;50.118;19.962;2023-10-13T04:57:07;24.85;;;12.57;;
73170;SDS011;61381;50.118;19.962;2023-10-13T05:02:08;34.78;;;15.93;;
73170;SDS011;61381;50.118;19.962;2023-10-13T05:07:09;28.08;;;13.55;;
73170;SDS011;61381;50.118;19.962;2023-10-13T05:12:11;25.42;;;12.60;;
73170;SDS011;61381;50.118;19.962;2023-10-13T05:17:12;35.55;;;15.23;;
73170;SDS011;61381;50.118;19.962;2023-10-13T05:22:13;29.20;;;13.07;;
73170;SDS011;61381;50.118;19.962;2023-10-13T05:27:15;29.27;;;13.35;;
73170;SDS011;61381;50.118;19.962;2023-10-13T05:32:16;27.80;;;14.80;;
73170;SDS011;61381;50.118;19.962;2023-10-13T05:37:17;26.95;;;13.55;;
73170;SDS011;61381;50.118;19.962;2023-10-13T05:42:19;27.65;;;13.20;;
73170;SDS011;61381;50.118;19.962;2023-10-13T05:47:20;28.20;;;13.05;;
73170;SDS011;61381;50.118;19.962;2023-10-13T05:52:21;33.83;;;13.85;;
73170;SDS011;61381;50.118;19.962;2023-10-13T05:57:23;29.65;;;13.43;;
73170;SDS011;61381;50.118;19.962;2023-10-13T06:02:24;21.60;;;12.52;;
73170;SDS011;61381;50.118;19.962;2023-10-13T06:07:25;27.58;;;11.80;;
73170;SDS011;61381;50.118;19.962;2023-10-13T06:12:27;27.42;;;12.90;;
73170;SDS011;61381;50.118;19.962;2023-10-13T06:17:28;24.80;;;12.40;;
73170;SDS011;61381;50.118;19.962;2023-10-13T06:22:29;32.88;;;13.23;;
73170;SDS011;61381;50.118;19.962;2023-10-13T06:27:31;30.45;;;13.43;;
73170;SDS011;61381;50.118;19.962;2023-10-13T06:32:32;24.30;;;11.77;;
73170;SDS011;61381;50.118;19.962;2023-10-13T06:37:33;25.17;;;11.48;;
73170;SDS011;61381;50.118;19.962;2023-10-13T06:42:35;24.35;;;12.65;;
73170;SDS011;61381;50.118;19.962;2023-10-13T06:47:36;24.98;;;12.65;;
73170;SDS011;61381;50.118;19.962;2023-10-13T06:52:37;29.30;;;12.10;;
73170;SDS011;61381;50.118;19.962;2023-10-13T06:57:39;24.70;;;12.02;;
73170;SDS011;61381;50.118;19.962;2023-10-13T07:02:40;25.92;;;12.98;;
73170;SDS011;61381;50.118;19.962;2023-10-13T07:07:41;25.70;;;13.55;;
73170;SDS011;61381;50.118;19.962;2023-10-13T07:12:43;26.85;;;13.23;;
73170;SDS011;61381;50.118;19.962;2023-10-13T07:17:44;25.85;;;12.18;;
73170;SDS011;61381;50.118;19.962;2023-10-13T07:22:45;29.80;;;12.82;;
73170;SDS011;61381;50.118;19.962;2023-10-13T07:27:47;27.98;;;12.07;;
73170;SDS011;61381;50.118;19.962;2023-10-13T07:32:48;27.15;;;12.63;;
73170;SDS011;61381;50.118;19.962;2023-10-13T07:37:49;26.25;;;11.57;;
73170;SDS011;61381;50.118;19.962;2023-10-13T07:42:51;29.05;;;11.35;;
73170;SDS011;61381;50.118;19.962;2023-10-13T07:47:52;22.88;;;10.75;;
73170;SDS011;61381;50.118;19.962;2023-10-13T07:52:53;23.70;;;10.27;;
73170;SDS011;61381;50.118;19.962;2023-10-13T07:57:55;23.25;;;9.15;;
73170;SDS011;61381;50.118;19.962;2023-10-13T08:02:56;21.42;;;8.32;;
73170;SDS011;61381;50.118;19.962;2023-10-13T08:07:58;12.25;;;7.15;;
73170;SDS011;61381;50.118;19.962;2023-10-13T08:13:00;21.25;;;6.93;;
73170;SDS011;61381;50.118;19.962;2023-10-13T08:18:01;17.33;;;6.47;;
73170;SDS011;61381;50.118;19.962;2023-10-13T08:23:02;16.48;;;6.40;;
73170;SDS011;61381;50.118;19.962;2023-10-13T08:28:04;13.25;;;6.10;;
73170;SDS011;61381;50.118;19.962;2023-10-13T08:33:05;15.63;;;6.45;;
73170;SDS011;61381;50.118;19.962;2023-10-13T08:38:06;13.77;;;5.53;;
73170;SDS011;61381;50.118;19.962;2023-10-13T08:43:09;13.00;;;5.47;;
73170;SDS011;61381;50.118;19.962;2023-10-13T08:48:11;14.55;;;6.80;;
73170;SDS011;61381;50.118;19.962;2023-10-13T08:53:12;12.50;;;6.97;;
73170;SDS011;61381;50.118;19.962;2023-10-13T08:58:16;11.65;;;6.30;;
73170;SDS011;61381;50.118;19.962;2023-10-13T09:03:17;10.60;;;5.22;;
73170;SDS011;61381;50.118;19.962;2023-10-13T09:08:24;11.40;;;4.43;;
73170;SDS011;61381;50.118;19.962;2023-10-13T09:13:34;9.52;;;4.53;;
73170;SDS011;61381;50.118;19.962;2023-10-13T09:18:35;8.85;;;4.10;;
73170;SDS011;61381;50.118;19.962;2023-10-13T09:23:36;7.13;;;4.47;;
73170;SDS011;61381;50.118;19.962;2023-10-13T09:28:47;7.80;;;4.15;;
73170;SDS011;61381;50.118;19.962;2023-10-13T09:33:48;6.65;;;3.70;;
73170;SDS011;61381;50.118;19.962;2023-10-13T09:38:49;8.90;;;4.00;;
73170;SDS011;61381;50.118;19.962;2023-10-13T09:43:51;8.25;;;4.45;;
73170;SDS011;61381;50.118;19.962;2023-10-13T09:48:54;7.07;;;3.40;;
73170;SDS011;61381;50.118;19.962;2023-10-13T09:54:00;8.30;;;4.28;;
73170;SDS011;61381;50.118;19.962;2023-10-13T09:59:08;8.43;;;4.30;;
73170;SDS011;61381;50.118;19.962;2023-10-13T10:04:13;8.90;;;4.20;;
73170;SDS011;61381;50.118;19.962;2023-10-13T10:09:15;10.95;;;4.65;;
73170;SDS011;61381;50.118;19.962;2023-10-13T10:14:23;7.85;;;4.70;;
73170;SDS011;61381;50.118;19.962;2023-10-13T10:19:46;10.40;;;5.05;;
73170;SDS011;61381;50.118;19.962;2023-10-13T10:24:55;7.45;;;4.15;;
73170;SDS011;61381;50.118;19.962;2023-10-13T10:29:58;8.27;;;4.68;;
73170;SDS011;61381;50.118;19.962;2023-10-13T10:35:06;8.57;;;4.25;;
73170;SDS011;61381;50.118;19.962;2023-10-13T10:40:09;9.15;;;3.80;;
73170;SDS011;61381;50.118;19.962;2023-10-13T10:45:11;6.85;;;3.83;;
73170;SDS011;61381;50.118;19.962;2023-10-13T10:50:12;6.65;;;3.80;;
73170;SDS011;61381;50.118;19.962;2023-10-13T10:55:13;10.05;;;3.50;;
73170;SDS011;61381;50.118;19.962;2023-10-13T11:00:21;8.02;;;3.70;;
73170;SDS011;61381;50.118;19.962;2023-10-13T11:05:22;7.10;;;3.75;;
73170;SDS011;61381;50.118;19.962;2023-10-13T11:10:23;7.93;;;3.83;;
73170;SDS011;61381;50.118;19.962;2023-10-13T11:15:26;7.70;;;3.97;;
73170;SDS011;61381;50.118;19.962;2023-10-13T11:20:27;7.82;;;4.05;;
73170;SDS011;61381;50.118;19.962;2023-10-13T11:25:29;7.68;;;3.65;;
73170;SDS011;61381;50.118;19.962;2023-10-13T11:30:33;10.50;;;3.90;;
73170;SDS011;61381;50.118;19.962;2023-10-13T11:35:34;7.93;;;3.55;;
73170;SDS011;61381;50.118;19.962;2023-10-13T11:40:35;7.85;;;3.47;;
73170;SDS011;61381;50.118;19.962;2023-10-13T11:45:37;5.50;;;3.40;;
73170;SDS011;61381;50.118;19.962;2023-10-13T11:50:40;7.05;;;3.55;;
73170;SDS011;61381;50.118;19.962;2023-10-13T11:55:40;8.85;;;3.97;;
73170;SDS011;61381;50.118;19.962;2023-10-13T12:00:43;7.63;;;3.40;;
73170;SDS011;61381;50.118;19.962;2023-10-13T12:05:44;5.45;;;3.15;;
73170;SDS011;61381;50.118;19.962;2023-10-13T12:10:45;5.85;;;3.05;;
73170;SDS011;61381;50.118;19.962;2023-10-13T12:15:47;4.80;;;2.97;;
73170;SDS011;61381;50.118;19.962;2023-10-13T12:20:48;7.10;;;3.15;;
73170;SDS011;61381;50.118;19.962;2023-10-13T12:25:49;4.72;;;3.03;;
73170;SDS011;61381;50.118;19.962;2023-10-13T12:30:51;5.82;;;3.63;;
73170;SDS011;61381;50.118;19.962;2023-10-13T12:35:55;8.40;;;4.00;;
73170;SDS011;61381;50.118;19.962;2023-10-13T12:45:59;4.00;;;3.00;;
73170;SDS011;61381;50.118;19.962;2023-10-13T12:51:00;5.85;;;3.05;;
73170;SDS011;61381;50.118;19.962;2023-10-13T12:56:01;7.63;;;3.53;;
73170;SDS011;61381;50.118;19.962;2023-10-13T13:01:03;4.75;;;3.08;;
73170;SDS011;61381;50.118;19.962;2023-10-13T13:06:04;6.25;;;3.17;;
73170;SDS011;61381;50.118;19.962;2023-10-13T13:11:05;5.40;;;3.08;;
73170;SDS011;61381;50.118;19.962;2023-10-13T13:16:07;6.68;;;3.50;;
73170;SDS011;61381;50.118;19.962;2023-10-13T13:21:08;7.13;;;3.15;;
73170;SDS011;61381;50.118;19.962;2023-10-13T13:26:09;7.32;;;3.30;;
73170;SDS011;61381;50.118;19.962;2023-10-13T13:31:11;5.85;;;2.97;;
73170;SDS011;61381;50.118;19.962;2023-10-13T13:36:12;5.72;;;3.22;;
73170;SDS011;61381;50.118;19.962;2023-10-13T13:41:13;5.75;;;3.05;;
73170;SDS011;61381;50.118;19.962;2023-10-13T13:46:16;5.40;;;3.20;;
73170;SDS011;61381;50.118;19.962;2023-10-13T13:51:17;6.03;;;3.00;;
73170;SDS011;61381;50.118;19.962;2023-10-13T13:56:18;6.70;;;3.13;;
73170;SDS011;61381;50.118;19.962;2023-10-13T14:01:21;4.15;;;2.72;;
73170;SDS011;61381;50.118;19.962;2023-10-13T14:06:23;3.80;;;2.58;;
73170;SDS011;61381;50.118;19.962;2023-10-13T14:11:25;5.18;;;3.08;;
73170;SDS011;61381;50.118;19.962;2023-10-13T14:16:29;5.13;;;2.92;;
73170;SDS011;61381;50.118;19.962;2023-10-13T14:21:31;5.15;;;2.63;;
73170;SDS011;61381;50.118;19.962;2023-10-13T14:26:31;3.63;;;2.90;;
73170;SDS011;61381;50.118;19.962;2023-10-13T14:31:34;4.72;;;2.75;;
73170;SDS011;61381;50.118;19.962;2023-10-13T14:36:36;5.80;;;3.30;;
73170;SDS011;61381;50.118;19.962;2023-10-13T14:41:37;4.75;;;2.90;;
73170;SDS011;61381;50.118;19.962;2023-10-13T14:46:39;6.20;;;2.80;;
73170;SDS011;61381;50.118;19.962;2023-10-13T14:51:40;5.93;;;3.05;;
73170;SDS011;61381;50.118;19.962;2023-10-13T14:56:41;11.50;;;3.70;;
73170;SDS011;61381;50.118;19.962;2023-10-13T15:01:44;5.63;;;3.20;;
73170;SDS011;61381;50.118;19.962;2023-10-13T15:06:45;6.22;;;2.80;;
73170;SDS011;61381;50.118;19.962;2023-10-13T15:11:46;6.80;;;2.70;;
73170;SDS011;61381;50.118;19.962;2023-10-13T15:16:48;5.10;;;2.80;;
73170;SDS011;61381;50.118;19.962;2023-10-13T15:21:49;4.28;;;2.70;;
73170;SDS011;61381;50.118;19.962;2023-10-13T15:26:50;5.63;;;3.00;;
73170;SDS011;61381;50.118;19.962;2023-10-13T15:31:52;5.05;;;3.33;;
73170;SDS011;61381;50.118;19.962;2023-10-13T15:36:53;7.18;;;3.50;;
73170;SDS011;61381;50.118;19.962;2023-10-13T15:41:55;7.22;;;3.35;;
73170;SDS011;61381;50.118;19.962;2023-10-13T15:46:58;9.32;;;4.13;;
73170;SDS011;61381;50.118;19.962;2023-10-13T15:51:59;8.07;;;3.42;;
73170;SDS011;61381;50.118;19.962;2023-10-13T15:57:00;8.27;;;3.90;;
73170;SDS011;61381;50.118;19.962;2023-10-13T16:02:02;8.90;;;3.90;;
73170;SDS011;61381;50.118;19.962;2023-10-13T16:07:03;9.80;;;3.60;;
73170;SDS011;61381;50.118;19.962;2023-10-13T16:12:04;13.73;;;4.07;;
73170;SDS011;61381;50.118;19.962;2023-10-13T16:17:06;6.05;;;3.42;;
73170;SDS011;61381;50.118;19.962;2023-10-13T16:22:07;6.35;;;3.60;;
73170;SDS011;61381;50.118;19.962;2023-10-13T16:27:08;7.00;;;4.22;;
73170;SDS011;61381;50.118;19.962;2023-10-13T16:32:10;7.40;;;3.35;;
73170;SDS011;61381;50.118;19.962;2023-10-13T16:37:11;7.18;;;3.63;;
73170;SDS011;61381;50.118;19.962;2023-10-13T16:42:12;6.60;;;3.88;;
73170;SDS011;61381;50.118;19.962;2023-10-13T16:47:14;7.82;;;3.75;;
73170;SDS011;61381;50.118;19.962;2023-10-13T16:52:15;6.70;;;3.78;;
73170;SDS011;61381;50.118;19.962;2023-10-13T16:57:16;7.45;;;3.95;;
73170;SDS011;61381;50.118;19.962;2023-10-13T17:02:19;8.30;;;4.38;;
73170;SDS011;61381;50.118;19.962;2023-10-13T17:07:20;11.02;;;5.40;;
73170;SDS011;61381;50.118;19.962;2023-10-13T17:12:21;11.55;;;5.40;;
73170;SDS011;61381;50.118;19.962;2023-10-13T17:17:23;11.20;;;4.85;;
73170;SDS011;61381;50.118;19.962;2023-10-13T17:22:24;16.50;;;7.53;;
73170;SDS011;61381;50.118;19.962;2023-10-13T17:27:25;16.67;;;6.78;;
73170;SDS011;61381;50.118;19.962;2023-10-13T17:32:27;11.43;;;6.60;;
73170;SDS011;61381;50.118;19.962;2023-10-13T17:37:28;9.90;;;5.40;;
73170;SDS011;61381;50.118;19.962;2023-10-13T17:42:29;8.73;;;4.90;;
73170;SDS011;61381;50.118;19.962;2023-10-13T17:47:31;11.05;;;5.28;;
73170;SDS011;61381;50.118;19.962;2023-10-13T17:52:32;11.13;;;5.65;;
73170;SDS011;61381;50.118;19.962;2023-10-13T17:57:33;13.23;;;5.13;;
73170;SDS011;61381;50.118;19.962;2023-10-13T18:02:36;11.90;;;5.53;;
73170;SDS011;61381;50.118;19.962;2023-10-13T18:07:37;11.30;;;5.57;;
73170;SDS011;61381;50.118;19.962;2023-10-13T18:12:38;11.93;;;5.75;;
73170;SDS011;61381;50.118;19.962;2023-10-13T18:17:40;10.15;;;5.05;;
73170;SDS011;61381;50.118;19.962;2023-10-13T18:22:41;10.27;;;5.28;;
73170;SDS011;61381;50.118;19.962;2023-10-13T18:27:42;10.90;;;5.57;;
73170;SDS011;61381;50.118;19.962;2023-10-13T18:32:45;11.70;;;5.07;;
73170;SDS011;61381;50.118;19.962;2023-10-13T18:37:46;9.15;;;5.03;;
73170;SDS011;61381;50.118;19.962;2023-10-13T18:42:47;12.50;;;5.18;;
73170;SDS011;61381;50.118;19.962;2023-10-13T18:47:50;10.48;;;4.80;;
73170;SDS011;61381;50.118;19.962;2023-10-13T18:52:51;11.27;;;5.40;;
73170;SDS011;61381;50.118;19.962;2023-10-13T18:57:52;12.55;;;6.07;;
73170;SDS011;61381;50.118;19.962;2023-10-13T19:02:54;11.45;;;5.43;;
73170;SDS011;61381;50.118;19.962;2023-10-13T19:07:55;10.43;;;5.30;;
73170;SDS011;61381;50.118;19.962;2023-10-13T19:12:56;10.60;;;4.93;;
73170;SDS011;61381;50.118;19.962;2023-10-13T19:17:58;12.38;;;4.85;;
73170;SDS011;61381;50.118;19.962;2023-10-13T19:22:59;13.48;;;5.90;;
73170;SDS011;61381;50.118;19.962;2023-10-13T19:28:00;11.38;;;5.55;;
73170;SDS011;61381;50.118;19.962;2023-10-13T19:33:03;9.70;;;5.68;;
73170;SDS011;61381;50.118;19.962;2023-10-13T19:38:04;24.38;;;9.15;;
73170;SDS011;61381;50.118;19.962;2023-10-13T19:43:05;11.80;;;5.78;;
73170;SDS011;61381;50.118;19.962;2023-10-13T19:48:07;11.60;;;6.40;;
73170;SDS011;61381;50.118;19.962;2023-10-13T19:53:09;12.52;;;6.55;;
73170;SDS011;61381;50.118;19.962;2023-10-13T19:58:10;12.52;;;6.40;;
73170;SDS011;61381;50.118;19.962;2023-10-13T20:03:12;10.07;;;5.97;;
73170;SDS011;61381;50.118;19.962;2023-10-13T20:08:13;15.18;;;7.07;;
73170;SDS011;61381;50.118;19.962;2023-10-13T20:13:14;10.82;;;6.45;;
73170;SDS011;61381;50.118;19.962;2023-10-13T20:18:17;11.77;;;6.25;;
73170;SDS011;61381;50.118;19.962;2023-10-13T20:23:18;11.88;;;6.60;;
73170;SDS011;61381;50.118;19.962;2023-10-13T20:28:19;13.40;;;6.68;;
73170;SDS011;61381;50.118;19.962;2023-10-13T20:33:21;12.20;;;5.93;;
73170;SDS011;61381;50.118;19.962;2023-10-13T20:38:22;10.00;;;5.85;;
73170;SDS011;61381;50.118;19.962;2023-10-13T20:43:23;11.68;;;6.57;;
73170;SDS011;61381;50.118;19.962;2023-10-13T20:48:26;11.05;;;5.93;;
73170;SDS011;61381;50.118;19.962;2023-10-13T20:53:27;11.73;;;6.65;;
73170;SDS011;61381;50.118;19.962;2023-10-13T20:58:28;12.57;;;6.20;;
73170;SDS011;61381;50.118;19.962;2023-10-13T21:03:30;10.45;;;5.82;;
73170;SDS011;61381;50.118;19.962;2023-10-13T21:08:31;10.77;;;5.68;;
73170;SDS011;61381;50.118;19.962;2023-10-13T21:13:32;12.57;;;5.15;;
73170;SDS011;61381;50.118;19.962;2023-10-13T21:18:35;10.43;;;5.55;;
73170;SDS011;61381;50.118;19.962;2023-10-13T21:23:36;10.43;;;5.75;;
73170;SDS011;61381;50.118;19.962;2023-10-13T21:28:37;8.55;;;4.55;;
73170;SDS011;61381;50.118;19.962;2023-10-13T21:33:39;10.70;;;5.25;;
73170;SDS011;61381;50.118;19.962;2023-10-13T21:38:40;12.30;;;5.47;;
73170;SDS011;61381;50.118;19.962;2023-10-13T21:43:41;10.68;;;5.15;;
73170;SDS011;61381;50.118;19.962;2023-10-13T21:48:44;11.05;;;5.90;;
73170;SDS011;61381;50.118;19.962;2023-10-13T21:53:45;12.52;;;5.65;;
73170;SDS011;61381;50.118;19.962;2023-10-13T21:58:47;17.02;;;7.30;;
73170;SDS011;61381;50.118;19.962;2023-10-13T22:03:49;15.80;;;6.80;;
73170;SDS011;61381;50.118;19.962;2023-10-13T22:08:51;16.10;;;6.65;;
73170;SDS011;61381;50.118;19.962;2023-10-13T22:13:53;11.40;;;6.28;;
73170;SDS011;61381;50.118;19.962;2023-10-13T22:18:55;14.63;;;8.23;;
73170;SDS011;61381;50.118;19.962;2023-10-13T22:23:56;16.85;;;7.05;;
73170;SDS011;61381;50.118;19.962;2023-10-13T22:28:57;11.90;;;6.60;;
73170;SDS011;61381;50.118;19.962;2023-10-13T22:33:59;15.35;;;7.03;;
73170;SDS011;61381;50.118;19.962;2023-10-13T22:39:00;10.98;;;5.95;;
73170;SDS011;61381;50.118;19.962;2023-10-13T22:44:01;11.15;;;6.18;;
73170;SDS011;61381;50.118;19.962;2023-10-13T22:49:03;11.02;;;5.75;;
73170;SDS011;61381;50.118;19.962;2023-10-13T22:54:04;12.07;;;5.88;;
73170;SDS011;61381;50.118;19.962;2023-10-13T22:59:05;12.38;;;6.05;;
73170;SDS011;61381;50.118;19.962;2023-10-13T23:04:07;11.30;;;5.80;;
73170;SDS011;61381;50.118;19.962;2023-10-13T23:09:08;15.82;;;6.40;;
73170;SDS011;61381;50.118;19.962;2023-10-13T23:14:09;9.85;;;6.10;;
73170;SDS011;61381;50.118;19.962;2023-10-13T23:19:11;12.43;;;6.38;;
73170;SDS011;61381;50.118;19.962;2023-10-13T23:24:12;12.15;;;6.70;;
73170;SDS011;61381;50.118;19.962;2023-10-13T23:29:13;11.88;;;6.15;;
73170;SDS011;61381;50.118;19.962;2023-10-13T23:34:15;14.82;;;6.70;;
73170;SDS011;61381;50.118;19.962;2023-10-13T23:39:16;12.65;;;7.07;;
73170;SDS011;61381;50.118;19.962;2023-10-13T23:44:17;14.73;;;5.93;;
73170;SDS011;61381;50.118;19.962;2023-10-13T23:49:19;12.30;;;6.53;;
73170;SDS011;61381;50.118;19.962;2023-10-13T23:54:20;11.48;;;5.97;;
73170;SDS011;61381;50.118;19.962;2023-10-13T23:59:21;15.35;;;5.90;;
